Maersk Drummond — A8JF3 — position and weather

sailwx.info

Track history (hours):
 
Tides and Currents Weather Stations Pressure Air Temp Water Temp Dewpoint Dewpoint Depression Visibility Wind Speed Wind Dir Waves Ship Positions

Maersk Drummond

Last reported at 2016-May-25 00:33 UTC. Time now 2016-May-29 02:01 UTC.
Position N 31°56' W 080°19'.

Length 294 m; draft 11.5 m.

Type: Ship (hazmat cat A). MMSI: 636091082.

Date/timePositionNaut miles runAvg speedWind from/ knotsBaromVisibWave heightAir tempDewpointWater temp
2016-May-25 00:33N 31°56' W 080°19'1717.0
2016-May-24 23:33N 31°56' W 080°38'1312.6
2016-May-24 22:33N 32°02' W 080°51'1010.0
2016-May-24 21:33N 32°05' W 081°03'5 5.5
2016-May-24 20:33N 32°08' W 081°08'0 0.0
2016-May-24 19:34N 32°08' W 081°08'0 0.0
2016-May-24 18:31N 32°08' W 081°08'0 0.0
2016-May-24 17:31N 32°08' W 081°08'0 0.0
2016-May-24 16:31N 32°08' W 081°08'0 0.0
2016-May-24 15:31N 32°08' W 081°08'0 0.0
2016-May-24 14:34N 32°08' W 081°08'0 0.0
2016-May-24 13:34N 32°08' W 081°08'0 0.0
2016-May-24 12:34N 32°08' W 081°08'0 0.0
2016-May-24 11:34N 32°08' W 081°08'0 0.0
2016-May-24 10:31N 32°08' W 081°08'0 0.1
2016-May-24 09:33N 32°08' W 081°08'4 3.6
2016-May-24 08:33N 32°05' W 081°05'5 5.3
2016-May-24 07:33N 32°05' W 080°59'1010.0
2016-May-24 06:33N 32°01' W 080°48'1313.0
2016-May-24 05:33N 31°56' W 080°34'37812.9
2016-May-23 00:10N 36°47' W 075°41'914.9
2016-May-22 23:33N 36°51' W 075°51'1313.4
2016-May-22 22:33N 36°58' W 076°06'1211.8
2016-May-22 21:33N 36°56' W 076°20'1 0.8
2016-May-22 20:33N 36°55' W 076°20'0 0.0
2016-May-22 18:30N 36°55' W 076°20'0 0.0
2016-May-22 17:33N 36°55' W 076°20'0 0.0
2016-May-22 16:33N 36°55' W 076°20'0 0.0
2016-May-22 15:33N 36°55' W 076°20'0 0.0
2016-May-22 14:30N 36°55' W 076°20'0 0.0
2016-May-22 13:33N 36°55' W 076°20'0 0.0
2016-May-22 12:30N 36°55' W 076°20'0 0.0
2016-May-22 11:30N 36°55' W 076°20'0 0.0
2016-May-22 10:33N 36°55' W 076°20'0 0.0
2016-May-22 09:33N 36°55' W 076°20'4 4.1
2016-May-22 08:31N 36°60' W 076°19'1414.7
2016-May-22 07:33N 36°57' W 076°01'9 8.9
2016-May-22 06:33N 36°53' W 075°51'17713.1
2016-May-21 17:06N 39°22' W 073°52'814.9
2016-May-21 16:33N 39°31' W 073°52'1514.8
2016-May-21 15:33N 39°45' W 073°52'1514.7
2016-May-21 14:33N 40°00' W 073°51'1514.8
2016-May-21 13:33N 40°15' W 073°50'1313.3
2016-May-21 12:33N 40°28' W 073°51'1414.1
2016-May-21 11:33N 40°39' W 074°04'6 5.6
2016-May-21 10:33N 40°39' W 074°11'0 0.3
2016-May-21 09:31N 40°39' W 074°11'0 0.0
2016-May-21 08:31N 40°39' W 074°11'0 0.0
2016-May-21 07:31N 40°39' W 074°11'0 0.0
2016-May-21 06:31N 40°39' W 074°11'0 0.0
2016-May-21 05:31N 40°39' W 074°11'0 0.0
2016-May-21 04:31N 40°39' W 074°11'0 0.0
2016-May-21 03:28N 40°39' W 074°11'0 0.0
2016-May-21 02:31N 40°39' W 074°11'0 0.0
2016-May-21 01:31N 40°39' W 074°11'0 0.0
2016-May-21 00:31N 40°39' W 074°11'0 0.0
2016-May-20 23:28N 40°39' W 074°11'0 0.0
2016-May-20 22:31N 40°39' W 074°11'0 0.0
2016-May-20 21:19N 40°39' W 074°11'0 0.0
2016-May-20 20:31N 40°39' W 074°11'0 0.0
2016-May-20 19:28N 40°39' W 074°11'0 0.0
2016-May-20 18:31N 40°39' W 074°11'0 0.0
2016-May-20 17:31N 40°39' W 074°11'0 0.0
2016-May-20 16:31N 40°39' W 074°11'0 0.0
2016-May-20 15:31N 40°39' W 074°11'0 0.0
2016-May-20 14:28N 40°39' W 074°11'0 0.0
2016-May-20 13:31N 40°39' W 074°11'0 0.0
2016-May-20 12:31N 40°39' W 074°11'0 0.0
2016-May-20 11:31N 40°39' W 074°11'0 0.0
2016-May-20 10:31N 40°39' W 074°11'3 2.9
2016-May-20 09:33N 40°39' W 074°08'5 5.5
2016-May-20 08:33N 40°35' W 074°02'5513.7
2016-May-20 04:31N 40°30' W 072°49'1616.7
2016-May-20 03:34N 40°31' W 072°28'1716.9
2016-May-20 02:33N 40°31' W 072°06'1716.7
2016-May-20 01:32N 40°31' W 071°44'  
Track history (hours):
 
Tides and Currents Weather Stations Pressure Air Temp Water Temp Dewpoint Dewpoint Depression Visibility Wind Speed Wind Dir Waves Ship Positions

Maersk Drummond

Last reported at 2016-May-25 00:33 UTC. Time now 2016-May-29 02:01 UTC.
Position N 31°56' W 080°19'.

Length 294 m; draft 11.5 m.

Type: Ship (hazmat cat A). MMSI: 636091082.

Date/timePositionNaut miles runAvg speedWind from/ knotsBaromVisibWave heightAir tempDewpointWater temp
2016-May-25 00:33N 31°56' W 080°19'1717.0
2016-May-24 23:33N 31°56' W 080°38'1312.6
2016-May-24 22:33N 32°02' W 080°51'1010.0
2016-May-24 21:33N 32°05' W 081°03'5 5.5
2016-May-24 20:33N 32°08' W 081°08'0 0.0
2016-May-24 19:34N 32°08' W 081°08'0 0.0
2016-May-24 18:31N 32°08' W 081°08'0 0.0
2016-May-24 17:31N 32°08' W 081°08'0 0.0
2016-May-24 16:31N 32°08' W 081°08'0 0.0
2016-May-24 15:31N 32°08' W 081°08'0 0.0
2016-May-24 14:34N 32°08' W 081°08'0 0.0
2016-May-24 13:34N 32°08' W 081°08'0 0.0
2016-May-24 12:34N 32°08' W 081°08'0 0.0
2016-May-24 11:34N 32°08' W 081°08'0 0.0
2016-May-24 10:31N 32°08' W 081°08'0 0.1
2016-May-24 09:33N 32°08' W 081°08'4 3.6
2016-May-24 08:33N 32°05' W 081°05'5 5.3
2016-May-24 07:33N 32°05' W 080°59'1010.0
2016-May-24 06:33N 32°01' W 080°48'1313.0
2016-May-24 05:33N 31°56' W 080°34'37812.9
2016-May-23 00:10N 36°47' W 075°41'914.9
2016-May-22 23:33N 36°51' W 075°51'1313.4
2016-May-22 22:33N 36°58' W 076°06'1211.8
2016-May-22 21:33N 36°56' W 076°20'1 0.8
2016-May-22 20:33N 36°55' W 076°20'0 0.0
2016-May-22 18:30N 36°55' W 076°20'0 0.0
2016-May-22 17:33N 36°55' W 076°20'0 0.0
2016-May-22 16:33N 36°55' W 076°20'0 0.0
2016-May-22 15:33N 36°55' W 076°20'0 0.0
2016-May-22 14:30N 36°55' W 076°20'0 0.0
2016-May-22 13:33N 36°55' W 076°20'0 0.0
2016-May-22 12:30N 36°55' W 076°20'0 0.0
2016-May-22 11:30N 36°55' W 076°20'0 0.0
2016-May-22 10:33N 36°55' W 076°20'0 0.0
2016-May-22 09:33N 36°55' W 076°20'4 4.1
2016-May-22 08:31N 36°60' W 076°19'1414.7
2016-May-22 07:33N 36°57' W 076°01'9 8.9
2016-May-22 06:33N 36°53' W 075°51'17713.1
2016-May-21 17:06N 39°22' W 073°52'814.9
2016-May-21 16:33N 39°31' W 073°52'1514.8
2016-May-21 15:33N 39°45' W 073°52'1514.7
2016-May-21 14:33N 40°00' W 073°51'1514.8
2016-May-21 13:33N 40°15' W 073°50'1313.3
2016-May-21 12:33N 40°28' W 073°51'1414.1
2016-May-21 11:33N 40°39' W 074°04'6 5.6
2016-May-21 10:33N 40°39' W 074°11'0 0.3
2016-May-21 09:31N 40°39' W 074°11'0 0.0
2016-May-21 08:31N 40°39' W 074°11'0 0.0
2016-May-21 07:31N 40°39' W 074°11'0 0.0
2016-May-21 06:31N 40°39' W 074°11'0 0.0
2016-May-21 05:31N 40°39' W 074°11'0 0.0
2016-May-21 04:31N 40°39' W 074°11'0 0.0
2016-May-21 03:28N 40°39' W 074°11'0 0.0
2016-May-21 02:31N 40°39' W 074°11'0 0.0
2016-May-21 01:31N 40°39' W 074°11'0 0.0
2016-May-21 00:31N 40°39' W 074°11'0 0.0
2016-May-20 23:28N 40°39' W 074°11'0 0.0
2016-May-20 22:31N 40°39' W 074°11'0 0.0
2016-May-20 21:19N 40°39' W 074°11'0 0.0
2016-May-20 20:31N 40°39' W 074°11'0 0.0
2016-May-20 19:28N 40°39' W 074°11'0 0.0
2016-May-20 18:31N 40°39' W 074°11'0 0.0
2016-May-20 17:31N 40°39' W 074°11'0 0.0
2016-May-20 16:31N 40°39' W 074°11'0 0.0
2016-May-20 15:31N 40°39' W 074°11'0 0.0
2016-May-20 14:28N 40°39' W 074°11'0 0.0
2016-May-20 13:31N 40°39' W 074°11'0 0.0
2016-May-20 12:31N 40°39' W 074°11'0 0.0
2016-May-20 11:31N 40°39' W 074°11'0 0.0
2016-May-20 10:31N 40°39' W 074°11'3 2.9
2016-May-20 09:33N 40°39' W 074°08'5 5.5
2016-May-20 08:33N 40°35' W 074°02'5513.7
2016-May-20 04:31N 40°30' W 072°49'1616.7
2016-May-20 03:34N 40°31' W 072°28'1716.9
2016-May-20 02:33N 40°31' W 072°06'1716.7
2016-May-20 01:32N 40°31' W 071°44'  

Dump ship's entire track history